createdAt,value
2022-08-31T00:01:16.370Z,99.90
2022-08-31T00:03:58.048Z,99.90
2022-08-31T00:06:32.212Z,99.90
2022-08-31T00:09:06.784Z,99.90
2022-08-31T00:11:39.428Z,99.90
2022-08-31T00:14:13.162Z,99.90
2022-08-31T00:16:46.479Z,99.90
2022-08-31T00:19:19.356Z,99.90
2022-08-31T00:21:51.862Z,99.90
2022-08-31T00:24:24.658Z,99.90
2022-08-31T00:26:57.214Z,99.90
2022-08-31T00:29:30.155Z,99.90
2022-08-31T00:32:03.047Z,99.90
2022-08-31T00:34:36.738Z,99.90
2022-08-31T00:37:10.308Z,99.90
2022-08-31T00:39:54.079Z,99.90
2022-08-31T00:42:27.260Z,99.90
2022-08-31T00:45:06.132Z,99.90
2022-08-31T00:47:38.934Z,99.90
2022-08-31T00:50:15.031Z,99.90
2022-08-31T00:52:53.524Z,99.90
2022-08-31T00:55:34.416Z,99.90
2022-08-31T00:58:11.668Z,99.90
2022-08-31T01:00:45.233Z,99.90
2022-08-31T01:03:19.481Z,99.90
2022-08-31T01:05:52.931Z,99.90
2022-08-31T01:08:27.183Z,99.90
2022-08-31T01:11:03.980Z,99.90
2022-08-31T01:13:37.550Z,99.90
2022-08-31T01:16:15.296Z,99.90
2022-08-31T01:18:49.700Z,99.90
2022-08-31T01:21:34.847Z,99.90
2022-08-31T01:24:09.846Z,99.90
2022-08-31T01:26:43.655Z,99.90
2022-08-31T01:29:26.259Z,99.90
2022-08-31T01:31:59.091Z,99.90
2022-08-31T01:34:32.887Z,99.90
2022-08-31T01:37:05.955Z,99.90
2022-08-31T01:39:38.543Z,99.90
2022-08-31T01:42:11.670Z,99.90
2022-08-31T01:44:44.219Z,99.90
2022-08-31T01:47:17.031Z,99.90
2022-08-31T01:49:49.595Z,99.90
2022-08-31T01:52:27.961Z,99.90
2022-08-31T01:55:03.607Z,99.90
2022-08-31T01:57:36.606Z,99.90
2022-08-31T02:00:09.988Z,99.90
2022-08-31T02:02:43.359Z,99.90
2022-08-31T02:05:16.014Z,99.90
2022-08-31T02:07:48.770Z,99.90
2022-08-31T02:10:22.018Z,99.90
2022-08-31T02:12:54.762Z,99.90
2022-08-31T02:15:27.430Z,99.90
2022-08-31T02:18:00.270Z,99.90
2022-08-31T02:20:34.342Z,99.90
2022-08-31T02:23:07.174Z,99.90
2022-08-31T02:25:39.824Z,99.90
2022-08-31T02:28:13.962Z,99.90
2022-08-31T02:30:46.586Z,99.90
2022-08-31T02:33:19.501Z,99.90
2022-08-31T02:35:53.724Z,99.90
2022-08-31T02:38:27.545Z,99.90
2022-08-31T02:41:00.658Z,99.90
2022-08-31T02:43:33.745Z,99.90
2022-08-31T02:46:06.471Z,99.90
2022-08-31T02:48:39.311Z,99.90
2022-08-31T02:51:12.402Z,99.90
2022-08-31T02:53:45.595Z,99.90
2022-08-31T02:56:18.198Z,99.90
2022-08-31T02:58:55.231Z,99.90
2022-08-31T03:01:28.172Z,99.90
2022-08-31T03:04:01.103Z,99.90
2022-08-31T03:06:33.726Z,99.90
2022-08-31T03:09:06.494Z,99.90
2022-08-31T03:11:39.022Z,99.90
2022-08-31T03:14:11.929Z,99.90
2022-08-31T03:16:45.934Z,99.90
2022-08-31T03:19:19.319Z,99.90
2022-08-31T03:21:56.109Z,99.90
2022-08-31T03:24:29.193Z,99.90
2022-08-31T03:27:01.897Z,99.90
2022-08-31T03:29:34.602Z,99.90
2022-08-31T03:32:07.189Z,99.90
2022-08-31T03:34:40.220Z,99.90
2022-08-31T03:37:12.901Z,99.90
2022-08-31T03:39:45.660Z,99.90
2022-08-31T03:42:18.560Z,99.90
2022-08-31T03:44:51.581Z,99.90
2022-08-31T03:47:25.608Z,99.90
2022-08-31T03:50:01.228Z,99.90
2022-08-31T03:52:34.308Z,99.90
2022-08-31T03:55:08.852Z,99.90
2022-08-31T03:57:41.432Z,99.90
2022-08-31T04:00:14.636Z,99.90
2022-08-31T04:02:47.321Z,99.90
2022-08-31T04:05:21.356Z,99.90
2022-08-31T04:07:54.772Z,99.90
2022-08-31T04:10:27.577Z,99.90
2022-08-31T04:13:00.128Z,99.90
2022-08-31T04:15:33.550Z,99.90
2022-08-31T04:18:06.849Z,99.90
2022-08-31T04:20:40.720Z,99.90
2022-08-31T04:23:13.339Z,99.90
2022-08-31T04:25:46.125Z,99.90
2022-08-31T04:28:18.733Z,99.90
2022-08-31T04:30:51.876Z,99.90
2022-08-31T04:33:24.528Z,99.90
2022-08-31T04:35:57.332Z,99.90
2022-08-31T04:38:29.912Z,99.90
2022-08-31T04:41:10.265Z,99.90
2022-08-31T04:43:47.053Z,99.90
2022-08-31T04:46:21.319Z,99.90
2022-08-31T04:48:54.044Z,99.90
2022-08-31T04:51:33.069Z,99.90
2022-08-31T04:54:08.852Z,99.90
2022-08-31T04:56:45.188Z,99.90
2022-08-31T04:59:18.879Z,99.90
2022-08-31T05:01:52.154Z,99.90
2022-08-31T05:04:24.905Z,99.90
2022-08-31T05:06:57.653Z,99.90
2022-08-31T05:09:30.273Z,99.90
2022-08-31T05:12:03.536Z,99.90
2022-08-31T05:14:37.121Z,99.90
2022-08-31T05:17:15.074Z,99.90
2022-08-31T05:19:48.291Z,99.90
2022-08-31T05:22:21.106Z,99.90
2022-08-31T05:24:53.663Z,99.90
2022-08-31T05:27:26.539Z,99.90
2022-08-31T05:29:59.275Z,99.90
2022-08-31T05:32:32.029Z,99.90
2022-08-31T05:35:07.096Z,99.90
2022-08-31T05:37:39.943Z,99.90
2022-08-31T05:40:13.185Z,99.90
2022-08-31T05:42:46.004Z,99.90
2022-08-31T05:45:18.924Z,99.90
2022-08-31T05:47:51.947Z,99.90
2022-08-31T05:50:24.492Z,99.90
2022-08-31T05:52:57.244Z,99.90
2022-08-31T05:55:31.379Z,99.90
2022-08-31T05:58:04.419Z,99.90
2022-08-31T06:00:39.500Z,99.90
2022-08-31T06:03:12.312Z,99.90
2022-08-31T06:05:45.852Z,99.90
2022-08-31T06:08:19.975Z,99.90
2022-08-31T06:11:00.817Z,99.90
2022-08-31T06:13:33.658Z,99.90
2022-08-31T06:16:07.144Z,99.90
2022-08-31T06:18:41.322Z,99.90
2022-08-31T06:21:15.723Z,99.90
2022-08-31T06:23:53.275Z,99.90
2022-08-31T06:26:28.083Z,99.90
2022-08-31T06:29:04.650Z,99.90
2022-08-31T06:31:46.625Z,99.90
2022-08-31T06:34:20.435Z,99.90
2022-08-31T06:36:53.114Z,99.90
2022-08-31T06:39:25.881Z,99.90
2022-08-31T06:41:58.517Z,99.90
2022-08-31T06:44:31.630Z,99.90
2022-08-31T06:47:04.346Z,99.90
2022-08-31T06:49:37.371Z,99.90
2022-08-31T06:52:09.988Z,99.90
2022-08-31T06:54:42.710Z,99.90
2022-08-31T06:57:15.698Z,99.90
2022-08-31T06:59:51.452Z,99.90
2022-08-31T07:02:24.138Z,99.90
2022-08-31T07:05:06.673Z,99.90
2022-08-31T07:07:39.965Z,99.90
2022-08-31T07:10:13.293Z,99.90
2022-08-31T07:12:45.925Z,99.90
2022-08-31T07:15:20.864Z,99.90
2022-08-31T07:17:53.538Z,99.90
2022-08-31T07:20:26.431Z,99.90
2022-08-31T07:22:59.126Z,99.90
2022-08-31T07:25:32.078Z,99.90
2022-08-31T07:28:05.406Z,99.90
2022-08-31T07:30:42.862Z,99.90
2022-08-31T07:33:16.995Z,99.90
2022-08-31T07:35:49.840Z,99.90
2022-08-31T07:38:41.191Z,99.90
2022-08-31T07:41:32.690Z,99.90
2022-08-31T07:44:05.393Z,99.90
2022-08-31T07:46:39.117Z,99.90
2022-08-31T07:49:13.864Z,99.90
2022-08-31T07:51:51.676Z,99.90
2022-08-31T07:54:28.272Z,99.90
2022-08-31T07:57:04.424Z,99.90
2022-08-31T07:59:39.362Z,99.90
2022-08-31T08:02:17.043Z,99.90
2022-08-31T08:04:53.513Z,99.90
2022-08-31T08:07:26.792Z,99.90
2022-08-31T08:10:00.937Z,99.90
2022-08-31T08:12:36.473Z,99.90
2022-08-31T08:15:10.366Z,99.90
2022-08-31T08:17:43.228Z,99.90
2022-08-31T08:20:16.030Z,99.90
2022-08-31T08:22:55.129Z,99.90
2022-08-31T08:25:28.760Z,99.90
2022-08-31T08:28:22.567Z,99.90
2022-08-31T08:31:08.351Z,99.90
2022-08-31T08:33:45.849Z,99.90
2022-08-31T08:36:19.609Z,99.90
2022-08-31T08:38:55.198Z,99.90
2022-08-31T08:41:30.126Z,99.50
2022-08-31T08:44:14.684Z,99.90
2022-08-31T08:46:59.828Z,99.90
2022-08-31T08:49:41.002Z,99.30
2022-08-31T08:52:43.870Z,98.70
2022-08-31T08:55:22.475Z,99.40
2022-08-31T08:57:56.201Z,99.70
2022-08-31T09:00:29.738Z,99.90
2022-08-31T09:03:33.318Z,99.40
2022-08-31T09:06:14.280Z,98.50
2022-08-31T09:08:55.918Z,98.00
2022-08-31T09:11:38.756Z,98.10
2022-08-31T09:14:19.270Z,97.40
2022-08-31T09:17:06.278Z,96.10
2022-08-31T09:19:57.378Z,94.00
2022-08-31T09:22:55.777Z,90.70
2022-08-31T09:25:34.104Z,92.20
2022-08-31T09:28:08.497Z,92.10
2022-08-31T09:30:44.056Z,92.10
2022-08-31T09:33:34.902Z,91.30
2022-08-31T09:39:34.505Z,90.30
2022-08-31T09:42:33.864Z,90.90
2022-08-31T09:49:00.328Z,90.20
2022-08-31T09:51:36.406Z,90.30
2022-08-31T09:54:44.429Z,87.60
2022-08-31T09:57:19.560Z,85.50
2022-08-31T09:59:52.146Z,86.20
2022-08-31T10:02:38.208Z,87.00
2022-08-31T10:05:40.586Z,85.90
2022-08-31T10:08:58.261Z,85.70
2022-08-31T10:11:35.561Z,86.10
2022-08-31T10:14:22.755Z,86.50
2022-08-31T10:17:04.943Z,86.60
2022-08-31T10:20:01.593Z,88.10
2022-08-31T10:22:52.172Z,87.60
2022-08-31T10:25:37.386Z,85.40
2022-08-31T10:28:17.245Z,87.20
2022-08-31T10:30:59.817Z,87.20
2022-08-31T10:34:06.378Z,88.00
2022-08-31T10:36:44.430Z,88.30
2022-08-31T10:39:35.262Z,89.80
2022-08-31T10:42:30.146Z,90.50
2022-08-31T10:45:15.188Z,91.30
2022-08-31T10:47:54.158Z,91.70
2022-08-31T10:50:45.169Z,90.80
2022-08-31T10:53:59.202Z,90.50
2022-08-31T10:56:37.310Z,84.60
2022-08-31T10:59:41.240Z,81.60
2022-08-31T11:02:36.689Z,79.60
2022-08-31T11:05:30.301Z,78.70
2022-08-31T11:08:02.870Z,75.60
2022-08-31T11:10:52.067Z,74.00
2022-08-31T11:13:51.362Z,73.60
2022-08-31T11:16:38.852Z,73.10
2022-08-31T11:19:26.653Z,74.10
2022-08-31T11:22:37.002Z,74.70
2022-08-31T11:25:48.179Z,74.30
2022-08-31T11:28:49.933Z,75.20
2022-08-31T11:31:27.480Z,75.80
2022-08-31T11:34:16.490Z,77.60
2022-08-31T11:37:01.105Z,77.40
2022-08-31T11:39:37.037Z,79.10
2022-08-31T11:42:18.989Z,78.30
2022-08-31T11:45:07.015Z,78.20
2022-08-31T11:47:43.302Z,80.00
2022-08-31T11:50:22.197Z,80.60
2022-08-31T11:52:56.854Z,80.40
2022-08-31T11:55:45.377Z,81.60
2022-08-31T11:58:23.538Z,83.00
2022-08-31T12:01:11.265Z,82.30
2022-08-31T12:03:43.841Z,81.90
2022-08-31T12:06:26.638Z,81.40
2022-08-31T12:09:10.186Z,80.80
2022-08-31T12:11:56.033Z,81.50
2022-08-31T12:14:50.341Z,80.60
2022-08-31T12:17:31.002Z,80.30
2022-08-31T12:20:22.839Z,78.40
2022-08-31T12:23:38.341Z,78.40
2022-08-31T12:26:17.250Z,79.30
2022-08-31T12:29:12.942Z,79.10
2022-08-31T12:32:06.465Z,78.60
2022-08-31T12:35:17.019Z,79.40
2022-08-31T12:38:16.872Z,79.00
2022-08-31T12:40:57.272Z,78.70
2022-08-31T12:43:41.941Z,78.90
2022-08-31T12:46:17.614Z,78.50
2022-08-31T12:48:53.698Z,77.40
2022-08-31T12:51:32.069Z,78.20
2022-08-31T12:54:32.509Z,77.70
2022-08-31T12:57:30.919Z,76.90
2022-08-31T13:00:27.295Z,76.60
2022-08-31T13:03:24.361Z,76.40
2022-08-31T13:06:06.513Z,77.20
2022-08-31T13:08:43.755Z,77.80
2022-08-31T13:11:44.429Z,75.90
2022-08-31T13:14:20.696Z,73.60
2022-08-31T13:16:57.518Z,74.00
2022-08-31T13:19:35.009Z,72.70
2022-08-31T13:22:10.948Z,72.70
2022-08-31T13:24:53.602Z,73.40
2022-08-31T13:27:29.945Z,74.10
2022-08-31T13:30:19.078Z,74.40
2022-08-31T13:32:54.758Z,75.10
2022-08-31T13:35:33.825Z,74.80
2022-08-31T13:38:09.145Z,73.60
2022-08-31T13:40:51.023Z,73.20
2022-08-31T13:43:26.795Z,72.60
2022-08-31T13:46:01.038Z,73.50
2022-08-31T13:48:40.704Z,72.80
2022-08-31T13:51:20.617Z,74.00
2022-08-31T13:53:53.305Z,73.10
2022-08-31T13:56:47.268Z,73.10
2022-08-31T13:59:26.764Z,71.40
2022-08-31T14:02:04.193Z,69.70
2022-08-31T14:05:01.042Z,70.30
2022-08-31T14:07:40.962Z,69.80
2022-08-31T14:10:19.556Z,70.10
2022-08-31T14:13:27.867Z,70.50
2022-08-31T14:16:09.328Z,70.40
2022-08-31T14:18:45.273Z,71.30
2022-08-31T14:21:21.949Z,71.00
2022-08-31T14:24:03.401Z,71.90
2022-08-31T14:26:41.769Z,72.30
2022-08-31T14:29:16.735Z,73.70
2022-08-31T14:31:52.663Z,75.10
2022-08-31T14:34:30.504Z,75.30
2022-08-31T14:37:07.670Z,75.90
2022-08-31T14:39:43.689Z,78.00
2022-08-31T14:42:21.611Z,79.80
2022-08-31T14:45:07.792Z,79.90
2022-08-31T14:47:43.888Z,80.10
2022-08-31T14:50:23.492Z,81.50
2022-08-31T14:52:57.679Z,81.50
2022-08-31T14:55:30.283Z,81.10
2022-08-31T14:58:13.654Z,77.80
2022-08-31T15:00:53.311Z,77.20
2022-08-31T15:03:33.213Z,76.40
2022-08-31T15:06:08.851Z,75.30
2022-08-31T15:08:42.160Z,73.50
2022-08-31T15:11:14.967Z,73.00
2022-08-31T15:13:49.397Z,72.80
2022-08-31T15:16:27.093Z,73.10
2022-08-31T15:19:02.267Z,73.70
2022-08-31T15:21:35.850Z,73.70
2022-08-31T15:24:19.835Z,73.90
2022-08-31T15:26:54.751Z,74.10
2022-08-31T15:29:29.060Z,73.80
2022-08-31T15:32:02.528Z,74.30
2022-08-31T15:34:35.328Z,75.10
2022-08-31T15:37:07.863Z,74.80
2022-08-31T15:39:43.460Z,74.60
2022-08-31T15:42:20.864Z,74.90
2022-08-31T15:44:57.292Z,75.10
2022-08-31T15:47:53.843Z,75.60
2022-08-31T15:50:31.479Z,75.70
2022-08-31T15:53:09.929Z,76.70
2022-08-31T15:55:46.529Z,77.30
2022-08-31T15:58:24.496Z,77.50
2022-08-31T16:00:58.403Z,78.00
2022-08-31T16:03:34.894Z,78.90
2022-08-31T16:06:11.167Z,79.00
2022-08-31T16:08:43.759Z,79.50
2022-08-31T16:11:16.612Z,79.80
2022-08-31T16:13:59.945Z,80.30
2022-08-31T16:16:36.981Z,80.70
2022-08-31T16:19:23.170Z,80.80
2022-08-31T16:22:08.063Z,81.10
2022-08-31T16:24:41.874Z,81.40
2022-08-31T16:27:17.841Z,81.70
2022-08-31T16:29:51.068Z,81.70
2022-08-31T16:32:32.811Z,81.50
2022-08-31T16:35:06.147Z,81.60
2022-08-31T16:37:39.079Z,81.20
2022-08-31T16:40:13.975Z,81.50
2022-08-31T16:42:49.201Z,81.50
2022-08-31T16:45:21.871Z,81.90
2022-08-31T16:48:14.643Z,82.40
2022-08-31T16:50:48.981Z,82.30
2022-08-31T16:53:24.591Z,82.20
2022-08-31T16:55:59.423Z,82.80
2022-08-31T16:58:52.279Z,82.50
2022-08-31T17:01:29.170Z,82.80
2022-08-31T17:04:05.657Z,82.10
2022-08-31T17:06:40.790Z,81.80
2022-08-31T17:09:20.320Z,82.30
2022-08-31T17:11:57.574Z,82.00
2022-08-31T17:14:35.723Z,82.00
2022-08-31T17:17:08.360Z,82.60
2022-08-31T17:19:43.114Z,83.00
2022-08-31T17:22:24.392Z,83.10
2022-08-31T17:25:03.024Z,84.00
2022-08-31T17:27:35.812Z,84.60
2022-08-31T17:30:09.091Z,84.90
2022-08-31T17:32:45.012Z,85.70
2022-08-31T17:35:19.390Z,86.10
2022-08-31T17:37:52.241Z,87.00
2022-08-31T17:40:25.696Z,87.50
2022-08-31T17:43:00.051Z,88.00
2022-08-31T17:45:36.195Z,88.70
2022-08-31T17:48:08.713Z,89.50
2022-08-31T17:50:43.197Z,90.00
2022-08-31T17:53:15.768Z,90.40
2022-08-31T17:55:57.647Z,90.30
2022-08-31T17:58:30.220Z,90.80
2022-08-31T18:01:05.679Z,90.90
2022-08-31T18:03:38.678Z,91.40
2022-08-31T18:06:11.568Z,91.70
2022-08-31T18:08:44.344Z,92.00
2022-08-31T18:11:17.228Z,92.10
2022-08-31T18:13:53.511Z,92.40
2022-08-31T18:16:27.405Z,92.50
2022-08-31T18:19:00.092Z,92.60
2022-08-31T18:21:33.198Z,92.80
2022-08-31T18:24:07.098Z,93.10
2022-08-31T18:26:45.834Z,93.50
2022-08-31T18:29:24.917Z,93.80
2022-08-31T18:31:59.559Z,94.10
2022-08-31T18:34:36.277Z,94.40
2022-08-31T18:37:10.800Z,94.80
2022-08-31T18:40:05.308Z,95.20
2022-08-31T18:42:59.256Z,95.60
2022-08-31T18:45:31.859Z,96.20
2022-08-31T18:48:24.281Z,96.80
2022-08-31T18:50:59.082Z,97.50
2022-08-31T18:53:33.837Z,98.30
2022-08-31T18:56:11.805Z,99.10
2022-08-31T18:58:48.035Z,99.80
2022-08-31T19:01:20.794Z,99.90
2022-08-31T19:03:54.139Z,99.90
2022-08-31T19:06:29.223Z,99.90
2022-08-31T19:09:02.554Z,99.90
2022-08-31T19:11:42.231Z,99.90
2022-08-31T19:14:23.246Z,99.90
2022-08-31T19:17:03.291Z,99.90
2022-08-31T19:19:37.385Z,99.90
2022-08-31T19:22:11.193Z,99.90
2022-08-31T19:24:44.306Z,99.90
2022-08-31T19:27:16.949Z,99.90
2022-08-31T19:29:55.690Z,99.90
2022-08-31T19:32:28.501Z,99.90
2022-08-31T19:35:01.292Z,99.90
2022-08-31T19:37:33.935Z,99.90
2022-08-31T19:40:07.293Z,99.90
2022-08-31T19:42:40.551Z,99.90
2022-08-31T19:45:42.476Z,99.90
2022-08-31T19:48:17.268Z,99.90
2022-08-31T19:50:50.458Z,99.90
2022-08-31T19:53:23.407Z,99.90
2022-08-31T19:55:57.522Z,99.90
2022-08-31T19:58:30.451Z,99.90
2022-08-31T20:01:10.575Z,99.90
2022-08-31T20:03:43.561Z,99.90
2022-08-31T20:06:21.580Z,99.90
2022-08-31T20:08:54.961Z,99.90
2022-08-31T20:11:30.481Z,99.90
2022-08-31T20:14:04.997Z,99.90
2022-08-31T20:16:41.878Z,99.90
2022-08-31T20:19:24.939Z,99.90
2022-08-31T20:22:05.669Z,99.90
2022-08-31T20:24:43.968Z,99.90
2022-08-31T20:27:19.581Z,99.90
2022-08-31T20:29:53.010Z,99.90
2022-08-31T20:32:26.035Z,99.90
2022-08-31T20:34:59.185Z,99.90
2022-08-31T20:37:32.275Z,99.90
2022-08-31T20:40:09.893Z,99.90
2022-08-31T20:42:43.263Z,99.90
2022-08-31T20:45:16.006Z,99.90
2022-08-31T20:48:07.366Z,99.90
2022-08-31T20:50:42.844Z,99.90
2022-08-31T20:53:35.972Z,99.90
2022-08-31T20:56:17.791Z,99.90
2022-08-31T20:58:51.714Z,99.90
2022-08-31T21:01:26.043Z,99.90
2022-08-31T21:03:58.888Z,99.90
2022-08-31T21:06:31.452Z,99.90
2022-08-31T21:09:05.258Z,99.90
2022-08-31T21:11:40.998Z,99.90
2022-08-31T21:14:18.763Z,99.90
2022-08-31T21:16:52.886Z,99.90
2022-08-31T21:19:26.519Z,99.90
2022-08-31T21:22:01.348Z,99.90
2022-08-31T21:24:38.692Z,99.90
2022-08-31T21:27:14.449Z,99.90
2022-08-31T21:29:50.040Z,99.90
2022-08-31T21:32:23.144Z,99.90
2022-08-31T21:34:57.337Z,99.90
2022-08-31T21:37:29.970Z,99.90
2022-08-31T21:40:04.752Z,99.90
2022-08-31T21:42:37.341Z,99.90
2022-08-31T21:45:13.701Z,99.90
2022-08-31T21:47:46.331Z,99.90
2022-08-31T21:50:19.160Z,99.90
2022-08-31T21:52:54.458Z,99.90
2022-08-31T21:55:30.105Z,99.90
2022-08-31T21:58:02.855Z,99.90
2022-08-31T22:00:41.900Z,99.90
2022-08-31T22:03:19.521Z,99.90
2022-08-31T22:05:55.545Z,99.90
2022-08-31T22:08:33.340Z,99.90
2022-08-31T22:11:24.208Z,99.90
2022-08-31T22:13:59.113Z,99.90
2022-08-31T22:16:32.644Z,99.90
2022-08-31T22:19:12.601Z,99.90
2022-08-31T22:21:48.687Z,99.90
2022-08-31T22:24:26.876Z,99.90
2022-08-31T22:27:05.650Z,99.90
2022-08-31T22:29:40.030Z,99.90
2022-08-31T22:32:15.214Z,99.90
2022-08-31T22:34:48.035Z,99.90
2022-08-31T22:37:20.855Z,99.90
2022-08-31T22:39:55.300Z,99.90
2022-08-31T22:42:28.187Z,99.90
2022-08-31T22:45:02.093Z,99.90
2022-08-31T22:47:49.220Z,99.90
2022-08-31T22:50:22.955Z,99.90
2022-08-31T22:52:55.798Z,99.90
2022-08-31T22:55:28.488Z,99.90
2022-08-31T22:58:01.417Z,99.90
2022-08-31T23:00:34.227Z,99.90
2022-08-31T23:03:06.939Z,99.90
2022-08-31T23:05:43.921Z,99.90
2022-08-31T23:08:16.739Z,99.90
2022-08-31T23:10:49.806Z,99.90
2022-08-31T23:13:42.471Z,99.90
2022-08-31T23:16:15.263Z,99.90
2022-08-31T23:18:49.335Z,99.90
2022-08-31T23:21:22.390Z,99.90
2022-08-31T23:23:56.064Z,99.90
2022-08-31T23:26:30.423Z,99.90
2022-08-31T23:29:10.116Z,99.90
2022-08-31T23:31:42.709Z,99.90
2022-08-31T23:34:16.579Z,99.90
2022-08-31T23:36:49.963Z,99.90
2022-08-31T23:39:24.179Z,99.90
2022-08-31T23:41:56.958Z,99.90
2022-08-31T23:44:30.602Z,99.90
2022-08-31T23:47:03.299Z,99.90
2022-08-31T23:49:36.190Z,99.90
2022-08-31T23:52:08.846Z,99.90
2022-08-31T23:54:41.634Z,99.90
2022-08-31T23:57:32.017Z,99.90
